sensor_id;sensor_type;location;lat;lon;timestamp;P1;durP1;ratioP1;P2;durP2;ratioP2
55732;SDS011;41637;52.364;9.910;2023-05-02T00:01:12;5.30;;;2.20;;
55732;SDS011;41637;52.364;9.910;2023-05-02T00:03:38;5.40;;;2.20;;
55732;SDS011;41637;52.364;9.910;2023-05-02T00:06:05;6.20;;;2.50;;
55732;SDS011;41637;52.364;9.910;2023-05-02T00:08:32;4.70;;;2.30;;
55732;SDS011;41637;52.364;9.910;2023-05-02T00:10:58;4.30;;;2.20;;
55732;SDS011;41637;52.364;9.910;2023-05-02T00:13:25;6.40;;;2.70;;
55732;SDS011;41637;52.364;9.910;2023-05-02T00:15:51;4.90;;;2.70;;
55732;SDS011;41637;52.364;9.910;2023-05-02T00:18:18;6.30;;;2.60;;
55732;SDS011;41637;52.364;9.910;2023-05-02T00:20:45;5.10;;;2.60;;
55732;SDS011;41637;52.364;9.910;2023-05-02T00:23:12;4.80;;;2.60;;
55732;SDS011;41637;52.364;9.910;2023-05-02T00:25:47;5.80;;;3.00;;
55732;SDS011;41637;52.364;9.910;2023-05-02T00:28:14;6.20;;;3.10;;
55732;SDS011;41637;52.364;9.910;2023-05-02T00:30:42;8.10;;;2.90;;
55732;SDS011;41637;52.364;9.910;2023-05-02T00:33:12;7.70;;;3.30;;
55732;SDS011;41637;52.364;9.910;2023-05-02T00:35:40;5.10;;;3.10;;
55732;SDS011;41637;52.364;9.910;2023-05-02T00:38:06;5.50;;;3.30;;
55732;SDS011;41637;52.364;9.910;2023-05-02T00:43:30;7.10;;;3.70;;
55732;SDS011;41637;52.364;9.910;2023-05-02T00:45:57;7.30;;;3.60;;
55732;SDS011;41637;52.364;9.910;2023-05-02T00:48:24;6.30;;;3.50;;
55732;SDS011;41637;52.364;9.910;2023-05-02T00:50:51;5.80;;;3.50;;
55732;SDS011;41637;52.364;9.910;2023-05-02T00:53:18;5.30;;;3.50;;
55732;SDS011;41637;52.364;9.910;2023-05-02T00:55:44;7.80;;;3.80;;
55732;SDS011;41637;52.364;9.910;2023-05-02T00:58:13;7.80;;;3.40;;
55732;SDS011;41637;52.364;9.910;2023-05-02T01:12:00;6.40;;;3.50;;
55732;SDS011;41637;52.364;9.910;2023-05-02T01:14:32;8.20;;;4.00;;
55732;SDS011;41637;52.364;9.910;2023-05-02T01:17:01;7.40;;;3.70;;
55732;SDS011;41637;52.364;9.910;2023-05-02T01:19:37;7.20;;;3.70;;
55732;SDS011;41637;52.364;9.910;2023-05-02T01:22:07;7.00;;;3.90;;
55732;SDS011;41637;52.364;9.910;2023-05-02T01:24:41;8.80;;;3.90;;
55732;SDS011;41637;52.364;9.910;2023-05-02T01:27:24;7.40;;;3.70;;
55732;SDS011;41637;52.364;9.910;2023-05-02T01:29:59;6.10;;;3.60;;
55732;SDS011;41637;52.364;9.910;2023-05-02T01:32:28;7.00;;;3.80;;
55732;SDS011;41637;52.364;9.910;2023-05-02T01:34:58;7.00;;;4.10;;
55732;SDS011;41637;52.364;9.910;2023-05-02T01:37:28;5.60;;;3.80;;
55732;SDS011;41637;52.364;9.910;2023-05-02T01:39:55;6.40;;;3.50;;
55732;SDS011;41637;52.364;9.910;2023-05-02T01:42:24;7.30;;;3.50;;
55732;SDS011;41637;52.364;9.910;2023-05-02T01:44:52;8.00;;;4.10;;
55732;SDS011;41637;52.364;9.910;2023-05-02T01:47:21;7.80;;;4.50;;
55732;SDS011;41637;52.364;9.910;2023-05-02T01:49:49;7.60;;;5.20;;
55732;SDS011;41637;52.364;9.910;2023-05-02T01:52:16;10.20;;;5.80;;
55732;SDS011;41637;52.364;9.910;2023-05-02T01:54:47;11.50;;;5.90;;
55732;SDS011;41637;52.364;9.910;2023-05-02T01:57:16;11.20;;;6.90;;
55732;SDS011;41637;52.364;9.910;2023-05-02T01:59:44;11.40;;;6.20;;
55732;SDS011;41637;52.364;9.910;2023-05-02T02:02:15;10.20;;;6.40;;
55732;SDS011;41637;52.364;9.910;2023-05-02T02:04:42;10.60;;;5.90;;
55732;SDS011;41637;52.364;9.910;2023-05-02T02:07:12;11.10;;;6.50;;
55732;SDS011;41637;52.364;9.910;2023-05-02T02:09:39;11.40;;;6.20;;
55732;SDS011;41637;52.364;9.910;2023-05-02T02:14:36;11.10;;;6.50;;
55732;SDS011;41637;52.364;9.910;2023-05-02T02:17:06;12.80;;;6.60;;
55732;SDS011;41637;52.364;9.910;2023-05-02T02:19:38;12.40;;;7.40;;
55732;SDS011;41637;52.364;9.910;2023-05-02T02:22:06;14.30;;;8.60;;
55732;SDS011;41637;52.364;9.910;2023-05-02T02:24:35;14.50;;;8.60;;
55732;SDS011;41637;52.364;9.910;2023-05-02T02:27:04;13.00;;;9.20;;
55732;SDS011;41637;52.364;9.910;2023-05-02T02:29:31;12.60;;;9.20;;
55732;SDS011;41637;52.364;9.910;2023-05-02T02:31:58;17.10;;;10.50;;
55732;SDS011;41637;52.364;9.910;2023-05-02T02:34:24;14.90;;;10.00;;
55732;SDS011;41637;52.364;9.910;2023-05-02T02:36:57;15.70;;;10.20;;
55732;SDS011;41637;52.364;9.910;2023-05-02T02:42:10;15.50;;;10.20;;
55732;SDS011;41637;52.364;9.910;2023-05-02T02:44:41;16.70;;;11.20;;
55732;SDS011;41637;52.364;9.910;2023-05-02T02:49:46;19.80;;;11.80;;
55732;SDS011;41637;52.364;9.910;2023-05-02T02:52:17;17.30;;;12.80;;
55732;SDS011;41637;52.364;9.910;2023-05-02T03:00:17;19.50;;;12.80;;
55732;SDS011;41637;52.364;9.910;2023-05-02T03:02:47;20.90;;;12.90;;
55732;SDS011;41637;52.364;9.910;2023-05-02T03:05:14;24.00;;;15.90;;
55732;SDS011;41637;52.364;9.910;2023-05-02T03:07:41;19.90;;;14.30;;
55732;SDS011;41637;52.364;9.910;2023-05-02T03:10:08;19.40;;;13.50;;
55732;SDS011;41637;52.364;9.910;2023-05-02T03:12:35;19.80;;;15.00;;
55732;SDS011;41637;52.364;9.910;2023-05-02T03:15:19;21.90;;;14.50;;
55732;SDS011;41637;52.364;9.910;2023-05-02T03:17:55;20.30;;;14.00;;
55732;SDS011;41637;52.364;9.910;2023-05-02T03:20:22;19.40;;;13.10;;
55732;SDS011;41637;52.364;9.910;2023-05-02T03:22:49;17.80;;;12.80;;
55732;SDS011;41637;52.364;9.910;2023-05-02T03:25:15;20.40;;;14.40;;
55732;SDS011;41637;52.364;9.910;2023-05-02T03:27:42;21.10;;;13.90;;
55732;SDS011;41637;52.364;9.910;2023-05-02T03:30:09;22.60;;;14.70;;
55732;SDS011;41637;52.364;9.910;2023-05-02T03:32:35;20.80;;;14.20;;
55732;SDS011;41637;52.364;9.910;2023-05-02T03:35:02;19.20;;;13.90;;
55732;SDS011;41637;52.364;9.910;2023-05-02T03:37:29;19.50;;;13.80;;
55732;SDS011;41637;52.364;9.910;2023-05-02T03:39:56;19.50;;;14.10;;
55732;SDS011;41637;52.364;9.910;2023-05-02T03:42:23;20.00;;;13.80;;
55732;SDS011;41637;52.364;9.910;2023-05-02T03:44:53;20.80;;;13.30;;
55732;SDS011;41637;52.364;9.910;2023-05-02T03:47:19;17.80;;;12.70;;
55732;SDS011;41637;52.364;9.910;2023-05-02T03:49:46;18.00;;;13.00;;
55732;SDS011;41637;52.364;9.910;2023-05-02T03:52:13;19.50;;;12.10;;
55732;SDS011;41637;52.364;9.910;2023-05-02T03:54:40;17.70;;;12.40;;
55732;SDS011;41637;52.364;9.910;2023-05-02T03:57:08;20.70;;;13.10;;
55732;SDS011;41637;52.364;9.910;2023-05-02T03:59:35;18.50;;;12.20;;
55732;SDS011;41637;52.364;9.910;2023-05-02T04:02:10;17.10;;;11.80;;
55732;SDS011;41637;52.364;9.910;2023-05-02T04:04:37;18.00;;;11.80;;
55732;SDS011;41637;52.364;9.910;2023-05-02T04:07:05;18.50;;;12.40;;
55732;SDS011;41637;52.364;9.910;2023-05-02T04:09:40;17.10;;;11.40;;
55732;SDS011;41637;52.364;9.910;2023-05-02T04:12:07;16.30;;;11.10;;
55732;SDS011;41637;52.364;9.910;2023-05-02T04:14:33;14.80;;;10.40;;
55732;SDS011;41637;52.364;9.910;2023-05-02T04:17:01;16.10;;;10.90;;
55732;SDS011;41637;52.364;9.910;2023-05-02T04:19:27;15.40;;;11.20;;
55732;SDS011;41637;52.364;9.910;2023-05-02T04:21:54;15.90;;;10.90;;
55732;SDS011;41637;52.364;9.910;2023-05-02T04:24:21;18.50;;;12.20;;
55732;SDS011;41637;52.364;9.910;2023-05-02T04:26:47;18.80;;;12.30;;
55732;SDS011;41637;52.364;9.910;2023-05-02T04:29:14;18.80;;;12.10;;
55732;SDS011;41637;52.364;9.910;2023-05-02T04:31:41;19.90;;;12.30;;
55732;SDS011;41637;52.364;9.910;2023-05-02T04:34:08;18.50;;;13.00;;
55732;SDS011;41637;52.364;9.910;2023-05-02T04:36:35;25.20;;;16.60;;
55732;SDS011;41637;52.364;9.910;2023-05-02T04:39:02;25.20;;;16.30;;
55732;SDS011;41637;52.364;9.910;2023-05-02T04:41:32;22.50;;;14.20;;
55732;SDS011;41637;52.364;9.910;2023-05-02T04:43:59;22.30;;;13.80;;
55732;SDS011;41637;52.364;9.910;2023-05-02T04:46:26;24.00;;;14.60;;
55732;SDS011;41637;52.364;9.910;2023-05-02T04:48:52;29.40;;;17.20;;
55732;SDS011;41637;52.364;9.910;2023-05-02T04:51:19;29.90;;;18.50;;
55732;SDS011;41637;52.364;9.910;2023-05-02T04:53:46;44.70;;;22.30;;
55732;SDS011;41637;52.364;9.910;2023-05-02T04:56:13;38.10;;;20.40;;
55732;SDS011;41637;52.364;9.910;2023-05-02T04:58:39;26.60;;;16.90;;
55732;SDS011;41637;52.364;9.910;2023-05-02T05:01:06;27.00;;;17.40;;
55732;SDS011;41637;52.364;9.910;2023-05-02T05:03:32;30.40;;;16.60;;
55732;SDS011;41637;52.364;9.910;2023-05-02T05:05:59;25.60;;;16.10;;
55732;SDS011;41637;52.364;9.910;2023-05-02T05:08:28;26.40;;;16.30;;
55732;SDS011;41637;52.364;9.910;2023-05-02T05:10:54;24.20;;;14.70;;
55732;SDS011;41637;52.364;9.910;2023-05-02T05:13:21;24.60;;;14.50;;
55732;SDS011;41637;52.364;9.910;2023-05-02T05:15:48;24.00;;;13.90;;
55732;SDS011;41637;52.364;9.910;2023-05-02T05:18:16;19.90;;;12.30;;
55732;SDS011;41637;52.364;9.910;2023-05-02T05:20:43;19.10;;;12.80;;
55732;SDS011;41637;52.364;9.910;2023-05-02T05:23:10;17.30;;;11.30;;
55732;SDS011;41637;52.364;9.910;2023-05-02T05:25:36;16.40;;;11.10;;
55732;SDS011;41637;52.364;9.910;2023-05-02T05:28:05;17.40;;;10.30;;
55732;SDS011;41637;52.364;9.910;2023-05-02T05:30:32;13.60;;;9.00;;
55732;SDS011;41637;52.364;9.910;2023-05-02T05:32:59;8.70;;;4.60;;
55732;SDS011;41637;52.364;9.910;2023-05-02T05:35:26;6.60;;;3.50;;
55732;SDS011;41637;52.364;9.910;2023-05-02T05:37:53;3.80;;;2.70;;
55732;SDS011;41637;52.364;9.910;2023-05-02T05:40:20;5.50;;;3.00;;
55732;SDS011;41637;52.364;9.910;2023-05-02T05:42:47;4.20;;;2.90;;
55732;SDS011;41637;52.364;9.910;2023-05-02T05:45:14;3.50;;;2.10;;
55732;SDS011;41637;52.364;9.910;2023-05-02T05:47:42;3.10;;;2.00;;
55732;SDS011;41637;52.364;9.910;2023-05-02T05:50:09;4.00;;;1.90;;
55732;SDS011;41637;52.364;9.910;2023-05-02T05:52:36;3.10;;;1.70;;
55732;SDS011;41637;52.364;9.910;2023-05-02T05:55:04;2.60;;;1.90;;
55732;SDS011;41637;52.364;9.910;2023-05-02T05:57:31;3.70;;;1.60;;
55732;SDS011;41637;52.364;9.910;2023-05-02T05:59:57;4.20;;;1.50;;
55732;SDS011;41637;52.364;9.910;2023-05-02T06:02:25;6.30;;;2.20;;
55732;SDS011;41637;52.364;9.910;2023-05-02T06:04:52;3.40;;;1.70;;
55732;SDS011;41637;52.364;9.910;2023-05-02T06:07:19;4.40;;;2.00;;
55732;SDS011;41637;52.364;9.910;2023-05-02T06:09:46;5.40;;;2.10;;
55732;SDS011;41637;52.364;9.910;2023-05-02T06:12:13;6.30;;;2.20;;
55732;SDS011;41637;52.364;9.910;2023-05-02T06:14:41;7.00;;;2.20;;
55732;SDS011;41637;52.364;9.910;2023-05-02T06:17:08;5.60;;;2.20;;
55732;SDS011;41637;52.364;9.910;2023-05-02T06:19:35;9.20;;;2.40;;
55732;SDS011;41637;52.364;9.910;2023-05-02T06:22:02;6.20;;;2.10;;
55732;SDS011;41637;52.364;9.910;2023-05-02T06:24:29;6.10;;;2.40;;
55732;SDS011;41637;52.364;9.910;2023-05-02T06:26:56;5.30;;;2.30;;
55732;SDS011;41637;52.364;9.910;2023-05-02T06:29:23;6.30;;;2.50;;
55732;SDS011;41637;52.364;9.910;2023-05-02T06:31:53;7.70;;;2.60;;
55732;SDS011;41637;52.364;9.910;2023-05-02T06:34:20;7.70;;;2.60;;
55732;SDS011;41637;52.364;9.910;2023-05-02T06:36:48;8.30;;;2.90;;
55732;SDS011;41637;52.364;9.910;2023-05-02T06:39:19;9.70;;;3.00;;
55732;SDS011;41637;52.364;9.910;2023-05-02T06:41:46;6.90;;;2.30;;
55732;SDS011;41637;52.364;9.910;2023-05-02T06:44:13;13.20;;;3.10;;
55732;SDS011;41637;52.364;9.910;2023-05-02T06:46:40;7.80;;;2.70;;
55732;SDS011;41637;52.364;9.910;2023-05-02T06:49:07;7.90;;;2.90;;
55732;SDS011;41637;52.364;9.910;2023-05-02T06:51:34;9.00;;;3.00;;
55732;SDS011;41637;52.364;9.910;2023-05-02T06:54:01;8.00;;;2.80;;
55732;SDS011;41637;52.364;9.910;2023-05-02T06:56:28;10.10;;;2.80;;
55732;SDS011;41637;52.364;9.910;2023-05-02T06:58:55;9.60;;;3.30;;
55732;SDS011;41637;52.364;9.910;2023-05-02T07:01:21;7.30;;;2.50;;
55732;SDS011;41637;52.364;9.910;2023-05-02T07:03:48;9.50;;;2.60;;
55732;SDS011;41637;52.364;9.910;2023-05-02T07:06:16;8.50;;;2.60;;
55732;SDS011;41637;52.364;9.910;2023-05-02T07:08:43;7.70;;;2.40;;
55732;SDS011;41637;52.364;9.910;2023-05-02T07:11:10;11.00;;;2.80;;
55732;SDS011;41637;52.364;9.910;2023-05-02T07:13:37;7.80;;;2.10;;
55732;SDS011;41637;52.364;9.910;2023-05-02T07:16:04;9.00;;;2.40;;
55732;SDS011;41637;52.364;9.910;2023-05-02T07:18:32;9.80;;;2.40;;
55732;SDS011;41637;52.364;9.910;2023-05-02T07:20:59;7.50;;;2.50;;
55732;SDS011;41637;52.364;9.910;2023-05-02T07:23:26;8.30;;;2.40;;
55732;SDS011;41637;52.364;9.910;2023-05-02T07:25:53;11.30;;;2.70;;
55732;SDS011;41637;52.364;9.910;2023-05-02T07:28:20;10.90;;;2.80;;
55732;SDS011;41637;52.364;9.910;2023-05-02T07:30:47;10.00;;;2.30;;
55732;SDS011;41637;52.364;9.910;2023-05-02T07:33:14;8.60;;;2.80;;
55732;SDS011;41637;52.364;9.910;2023-05-02T07:35:42;8.20;;;2.50;;
55732;SDS011;41637;52.364;9.910;2023-05-02T07:38:08;10.10;;;2.40;;
55732;SDS011;41637;52.364;9.910;2023-05-02T07:40:35;10.40;;;2.50;;
55732;SDS011;41637;52.364;9.910;2023-05-02T07:43:03;8.70;;;2.30;;
55732;SDS011;41637;52.364;9.910;2023-05-02T07:45:30;12.30;;;3.20;;
55732;SDS011;41637;52.364;9.910;2023-05-02T07:47:57;9.40;;;2.50;;
55732;SDS011;41637;52.364;9.910;2023-05-02T07:50:24;10.10;;;3.00;;
55732;SDS011;41637;52.364;9.910;2023-05-02T07:52:53;8.80;;;2.20;;
55732;SDS011;41637;52.364;9.910;2023-05-02T07:55:21;9.30;;;2.30;;
55732;SDS011;41637;52.364;9.910;2023-05-02T07:57:48;12.70;;;3.00;;
55732;SDS011;41637;52.364;9.910;2023-05-02T08:00:16;11.40;;;2.60;;
55732;SDS011;41637;52.364;9.910;2023-05-02T08:02:43;7.50;;;2.20;;
55732;SDS011;41637;52.364;9.910;2023-05-02T08:05:11;12.00;;;2.90;;
55732;SDS011;41637;52.364;9.910;2023-05-02T08:07:38;12.20;;;2.80;;
55732;SDS011;41637;52.364;9.910;2023-05-02T08:10:05;11.10;;;3.00;;
55732;SDS011;41637;52.364;9.910;2023-05-02T08:12:36;10.50;;;3.00;;
55732;SDS011;41637;52.364;9.910;2023-05-02T08:15:07;8.00;;;2.40;;
55732;SDS011;41637;52.364;9.910;2023-05-02T08:17:36;11.50;;;3.00;;
55732;SDS011;41637;52.364;9.910;2023-05-02T08:20:03;9.00;;;2.50;;
55732;SDS011;41637;52.364;9.910;2023-05-02T08:22:30;13.40;;;2.90;;
55732;SDS011;41637;52.364;9.910;2023-05-02T08:24:57;9.30;;;2.10;;
55732;SDS011;41637;52.364;9.910;2023-05-02T08:27:24;7.80;;;1.80;;
55732;SDS011;41637;52.364;9.910;2023-05-02T08:29:51;7.50;;;1.90;;
55732;SDS011;41637;52.364;9.910;2023-05-02T08:32:18;7.10;;;1.60;;
55732;SDS011;41637;52.364;9.910;2023-05-02T08:34:44;9.10;;;1.80;;
55732;SDS011;41637;52.364;9.910;2023-05-02T08:37:11;8.00;;;1.80;;
55732;SDS011;41637;52.364;9.910;2023-05-02T08:39:38;7.40;;;2.10;;
55732;SDS011;41637;52.364;9.910;2023-05-02T08:42:05;8.10;;;2.10;;
55732;SDS011;41637;52.364;9.910;2023-05-02T08:44:33;7.30;;;2.20;;
55732;SDS011;41637;52.364;9.910;2023-05-02T08:47:00;9.80;;;2.10;;
55732;SDS011;41637;52.364;9.910;2023-05-02T08:49:28;6.20;;;1.80;;
55732;SDS011;41637;52.364;9.910;2023-05-02T08:52:00;4.40;;;1.60;;
55732;SDS011;41637;52.364;9.910;2023-05-02T08:54:27;6.00;;;1.50;;
55732;SDS011;41637;52.364;9.910;2023-05-02T08:56:55;7.30;;;1.80;;
55732;SDS011;41637;52.364;9.910;2023-05-02T08:59:24;6.00;;;1.70;;
55732;SDS011;41637;52.364;9.910;2023-05-02T09:01:51;8.10;;;1.90;;
55732;SDS011;41637;52.364;9.910;2023-05-02T09:04:23;7.30;;;1.70;;
55732;SDS011;41637;52.364;9.910;2023-05-02T09:06:57;5.20;;;2.00;;
55732;SDS011;41637;52.364;9.910;2023-05-02T09:09:24;5.60;;;1.70;;
55732;SDS011;41637;52.364;9.910;2023-05-02T09:11:52;6.80;;;2.20;;
55732;SDS011;41637;52.364;9.910;2023-05-02T09:14:19;7.50;;;2.00;;
55732;SDS011;41637;52.364;9.910;2023-05-02T09:16:46;8.60;;;1.60;;
55732;SDS011;41637;52.364;9.910;2023-05-02T09:19:22;5.20;;;2.00;;
55732;SDS011;41637;52.364;9.910;2023-05-02T09:21:51;6.50;;;2.00;;
55732;SDS011;41637;52.364;9.910;2023-05-02T09:24:18;6.90;;;2.00;;
55732;SDS011;41637;52.364;9.910;2023-05-02T09:26:59;7.00;;;2.10;;
55732;SDS011;41637;52.364;9.910;2023-05-02T09:29:29;6.30;;;2.00;;
55732;SDS011;41637;52.364;9.910;2023-05-02T09:32:01;6.70;;;1.80;;
55732;SDS011;41637;52.364;9.910;2023-05-02T09:34:29;8.70;;;1.90;;
55732;SDS011;41637;52.364;9.910;2023-05-02T09:36:56;6.50;;;2.30;;
55732;SDS011;41637;52.364;9.910;2023-05-02T09:39:24;5.90;;;1.70;;
55732;SDS011;41637;52.364;9.910;2023-05-02T09:41:52;6.10;;;1.70;;
55732;SDS011;41637;52.364;9.910;2023-05-02T09:44:21;5.60;;;1.80;;
55732;SDS011;41637;52.364;9.910;2023-05-02T09:46:51;4.40;;;1.50;;
55732;SDS011;41637;52.364;9.910;2023-05-02T09:49:24;5.60;;;1.70;;
55732;SDS011;41637;52.364;9.910;2023-05-02T09:52:11;6.00;;;1.60;;
55732;SDS011;41637;52.364;9.910;2023-05-02T09:54:42;4.00;;;1.50;;
55732;SDS011;41637;52.364;9.910;2023-05-02T09:57:11;6.40;;;1.70;;
55732;SDS011;41637;52.364;9.910;2023-05-02T09:59:38;5.20;;;1.80;;
55732;SDS011;41637;52.364;9.910;2023-05-02T10:02:06;6.30;;;1.70;;
55732;SDS011;41637;52.364;9.910;2023-05-02T10:04:36;6.20;;;1.60;;
55732;SDS011;41637;52.364;9.910;2023-05-02T10:07:03;5.90;;;1.70;;
55732;SDS011;41637;52.364;9.910;2023-05-02T10:09:31;5.30;;;1.60;;
55732;SDS011;41637;52.364;9.910;2023-05-02T10:12:02;4.70;;;1.40;;
55732;SDS011;41637;52.364;9.910;2023-05-02T10:14:40;5.80;;;1.50;;
55732;SDS011;41637;52.364;9.910;2023-05-02T10:17:13;5.50;;;1.50;;
55732;SDS011;41637;52.364;9.910;2023-05-02T10:19:56;6.10;;;1.40;;
55732;SDS011;41637;52.364;9.910;2023-05-02T10:22:29;4.70;;;1.70;;
55732;SDS011;41637;52.364;9.910;2023-05-02T10:24:57;5.70;;;1.40;;
55732;SDS011;41637;52.364;9.910;2023-05-02T10:27:26;3.50;;;1.30;;
55732;SDS011;41637;52.364;9.910;2023-05-02T10:29:56;5.30;;;1.60;;
55732;SDS011;41637;52.364;9.910;2023-05-02T10:32:25;4.50;;;1.60;;
55732;SDS011;41637;52.364;9.910;2023-05-02T10:34:57;5.80;;;1.80;;
55732;SDS011;41637;52.364;9.910;2023-05-02T10:37:28;4.60;;;1.50;;
55732;SDS011;41637;52.364;9.910;2023-05-02T10:39:58;7.30;;;1.60;;
55732;SDS011;41637;52.364;9.910;2023-05-02T10:42:26;5.30;;;1.90;;
55732;SDS011;41637;52.364;9.910;2023-05-02T10:44:55;5.90;;;1.70;;
55732;SDS011;41637;52.364;9.910;2023-05-02T10:47:25;5.20;;;2.10;;
55732;SDS011;41637;52.364;9.910;2023-05-02T10:49:53;6.70;;;2.00;;
55732;SDS011;41637;52.364;9.910;2023-05-02T10:52:31;8.10;;;1.90;;
55732;SDS011;41637;52.364;9.910;2023-05-02T10:55:11;5.60;;;2.10;;
55732;SDS011;41637;52.364;9.910;2023-05-02T11:00:31;6.70;;;2.10;;
55732;SDS011;41637;52.364;9.910;2023-05-02T11:02:59;7.20;;;2.20;;
55732;SDS011;41637;52.364;9.910;2023-05-02T11:05:27;8.60;;;2.30;;
55732;SDS011;41637;52.364;9.910;2023-05-02T11:10:46;9.40;;;2.50;;
55732;SDS011;41637;52.364;9.910;2023-05-02T11:13:13;9.70;;;2.60;;
55732;SDS011;41637;52.364;9.910;2023-05-02T11:18:10;5.60;;;2.30;;
55732;SDS011;41637;52.364;9.910;2023-05-02T11:20:42;9.20;;;2.50;;
55732;SDS011;41637;52.364;9.910;2023-05-02T11:25:40;7.10;;;2.50;;
55732;SDS011;41637;52.364;9.910;2023-05-02T11:28:42;7.30;;;2.60;;
55732;SDS011;41637;52.364;9.910;2023-05-02T11:31:02;6.20;;;2.50;;
55732;SDS011;41637;52.364;9.910;2023-05-02T11:33:29;6.40;;;2.20;;
55732;SDS011;41637;52.364;9.910;2023-05-02T11:35:56;6.30;;;2.50;;
55732;SDS011;41637;52.364;9.910;2023-05-02T11:38:24;5.40;;;1.80;;
55732;SDS011;41637;52.364;9.910;2023-05-02T11:40:53;10.20;;;2.30;;
55732;SDS011;41637;52.364;9.910;2023-05-02T11:43:22;6.40;;;2.00;;
55732;SDS011;41637;52.364;9.910;2023-05-02T11:45:51;6.20;;;2.30;;
55732;SDS011;41637;52.364;9.910;2023-05-02T11:48:22;7.00;;;2.50;;
55732;SDS011;41637;52.364;9.910;2023-05-02T11:53:23;8.50;;;2.40;;
55732;SDS011;41637;52.364;9.910;2023-05-02T11:55:54;5.30;;;2.00;;
55732;SDS011;41637;52.364;9.910;2023-05-02T11:58:23;7.00;;;2.10;;
55732;SDS011;41637;52.364;9.910;2023-05-02T12:00:52;4.60;;;2.00;;
55732;SDS011;41637;52.364;9.910;2023-05-02T12:05:57;6.00;;;2.10;;
55732;SDS011;41637;52.364;9.910;2023-05-02T12:08:36;6.40;;;2.50;;
55732;SDS011;41637;52.364;9.910;2023-05-02T12:11:04;7.70;;;2.40;;
55732;SDS011;41637;52.364;9.910;2023-05-02T12:13:32;8.80;;;2.40;;
55732;SDS011;41637;52.364;9.910;2023-05-02T12:15:59;9.90;;;2.80;;
55732;SDS011;41637;52.364;9.910;2023-05-02T12:18:26;7.40;;;2.80;;
55732;SDS011;41637;52.364;9.910;2023-05-02T12:20:53;6.60;;;2.60;;
55732;SDS011;41637;52.364;9.910;2023-05-02T12:23:23;7.60;;;2.50;;
55732;SDS011;41637;52.364;9.910;2023-05-02T12:25:51;6.70;;;2.20;;
55732;SDS011;41637;52.364;9.910;2023-05-02T12:28:18;6.60;;;2.30;;
55732;SDS011;41637;52.364;9.910;2023-05-02T12:30:46;4.60;;;2.20;;
55732;SDS011;41637;52.364;9.910;2023-05-02T12:33:15;9.10;;;2.70;;
55732;SDS011;41637;52.364;9.910;2023-05-02T12:35:43;8.20;;;2.20;;
55732;SDS011;41637;52.364;9.910;2023-05-02T12:38:12;8.30;;;2.60;;
55732;SDS011;41637;52.364;9.910;2023-05-02T12:40:47;5.90;;;2.60;;
55732;SDS011;41637;52.364;9.910;2023-05-02T12:43:19;5.90;;;2.50;;
55732;SDS011;41637;52.364;9.910;2023-05-02T12:45:47;5.00;;;2.20;;
55732;SDS011;41637;52.364;9.910;2023-05-02T12:50:51;5.40;;;2.30;;
55732;SDS011;41637;52.364;9.910;2023-05-02T12:53:39;8.20;;;2.10;;
55732;SDS011;41637;52.364;9.910;2023-05-02T12:56:10;6.00;;;2.30;;
55732;SDS011;41637;52.364;9.910;2023-05-02T12:58:45;5.40;;;2.20;;
55732;SDS011;41637;52.364;9.910;2023-05-02T13:01:13;6.10;;;2.20;;
55732;SDS011;41637;52.364;9.910;2023-05-02T13:03:41;6.80;;;2.20;;
55732;SDS011;41637;52.364;9.910;2023-05-02T13:06:09;6.20;;;2.10;;
55732;SDS011;41637;52.364;9.910;2023-05-02T13:08:36;7.00;;;2.50;;
55732;SDS011;41637;52.364;9.910;2023-05-02T13:11:03;4.70;;;1.90;;
55732;SDS011;41637;52.364;9.910;2023-05-02T13:13:30;6.60;;;2.10;;
55732;SDS011;41637;52.364;9.910;2023-05-02T13:15:57;5.90;;;1.90;;
55732;SDS011;41637;52.364;9.910;2023-05-02T13:18:24;6.00;;;1.90;;
55732;SDS011;41637;52.364;9.910;2023-05-02T13:20:53;4.10;;;2.00;;
55732;SDS011;41637;52.364;9.910;2023-05-02T13:23:19;8.30;;;1.50;;
55732;SDS011;41637;52.364;9.910;2023-05-02T13:25:46;5.70;;;1.70;;
55732;SDS011;41637;52.364;9.910;2023-05-02T13:28:13;4.70;;;1.90;;
55732;SDS011;41637;52.364;9.910;2023-05-02T13:30:40;4.60;;;1.80;;
55732;SDS011;41637;52.364;9.910;2023-05-02T13:33:07;4.60;;;1.40;;
55732;SDS011;41637;52.364;9.910;2023-05-02T13:35:33;5.50;;;2.10;;
55732;SDS011;41637;52.364;9.910;2023-05-02T13:38:01;3.90;;;1.40;;
55732;SDS011;41637;52.364;9.910;2023-05-02T13:40:27;5.40;;;1.60;;
55732;SDS011;41637;52.364;9.910;2023-05-02T13:42:54;4.50;;;1.80;;
55732;SDS011;41637;52.364;9.910;2023-05-02T13:45:21;4.10;;;1.50;;
55732;SDS011;41637;52.364;9.910;2023-05-02T13:47:47;3.20;;;1.60;;
55732;SDS011;41637;52.364;9.910;2023-05-02T13:50:14;2.60;;;1.10;;
55732;SDS011;41637;52.364;9.910;2023-05-02T13:52:41;5.90;;;1.60;;
55732;SDS011;41637;52.364;9.910;2023-05-02T13:55:08;4.60;;;1.40;;
55732;SDS011;41637;52.364;9.910;2023-05-02T13:57:35;3.00;;;1.20;;
55732;SDS011;41637;52.364;9.910;2023-05-02T14:00:02;3.30;;;1.30;;
55732;SDS011;41637;52.364;9.910;2023-05-02T14:02:30;3.50;;;1.20;;
55732;SDS011;41637;52.364;9.910;2023-05-02T14:04:57;3.60;;;1.40;;
55732;SDS011;41637;52.364;9.910;2023-05-02T14:07:23;3.60;;;1.30;;
55732;SDS011;41637;52.364;9.910;2023-05-02T14:09:50;2.90;;;1.10;;
55732;SDS011;41637;52.364;9.910;2023-05-02T14:12:16;3.30;;;1.20;;
55732;SDS011;41637;52.364;9.910;2023-05-02T14:14:43;2.60;;;1.00;;
55732;SDS011;41637;52.364;9.910;2023-05-02T14:17:09;4.20;;;1.30;;
55732;SDS011;41637;52.364;9.910;2023-05-02T14:19:36;13.30;;;10.20;;
55732;SDS011;41637;52.364;9.910;2023-05-02T14:22:02;3.70;;;1.20;;
55732;SDS011;41637;52.364;9.910;2023-05-02T14:24:29;6.50;;;1.30;;
55732;SDS011;41637;52.364;9.910;2023-05-02T14:26:56;5.00;;;1.10;;
55732;SDS011;41637;52.364;9.910;2023-05-02T14:29:23;5.70;;;1.20;;
55732;SDS011;41637;52.364;9.910;2023-05-02T14:31:50;2.90;;;0.90;;
55732;SDS011;41637;52.364;9.910;2023-05-02T14:34:16;4.10;;;1.00;;
55732;SDS011;41637;52.364;9.910;2023-05-02T14:36:43;3.90;;;1.10;;
55732;SDS011;41637;52.364;9.910;2023-05-02T14:39:09;4.00;;;0.80;;
55732;SDS011;41637;52.364;9.910;2023-05-02T14:41:36;4.00;;;0.90;;
55732;SDS011;41637;52.364;9.910;2023-05-02T14:44:03;5.00;;;0.90;;
55732;SDS011;41637;52.364;9.910;2023-05-02T14:46:29;2.70;;;1.00;;
55732;SDS011;41637;52.364;9.910;2023-05-02T14:48:56;3.20;;;1.00;;
55732;SDS011;41637;52.364;9.910;2023-05-02T14:51:23;3.30;;;1.00;;
55732;SDS011;41637;52.364;9.910;2023-05-02T14:53:52;3.30;;;0.90;;
55732;SDS011;41637;52.364;9.910;2023-05-02T14:56:19;4.40;;;1.00;;
55732;SDS011;41637;52.364;9.910;2023-05-02T14:58:46;3.50;;;1.20;;
55732;SDS011;41637;52.364;9.910;2023-05-02T15:01:19;5.90;;;1.30;;
55732;SDS011;41637;52.364;9.910;2023-05-02T15:03:47;5.10;;;1.10;;
55732;SDS011;41637;52.364;9.910;2023-05-02T15:06:31;5.30;;;1.30;;
55732;SDS011;41637;52.364;9.910;2023-05-02T15:08:58;4.50;;;1.30;;
55732;SDS011;41637;52.364;9.910;2023-05-02T15:11:24;4.10;;;1.30;;
55732;SDS011;41637;52.364;9.910;2023-05-02T15:13:51;2.70;;;1.20;;
55732;SDS011;41637;52.364;9.910;2023-05-02T15:16:17;3.40;;;0.90;;
55732;SDS011;41637;52.364;9.910;2023-05-02T15:18:44;3.10;;;1.20;;
55732;SDS011;41637;52.364;9.910;2023-05-02T15:21:11;4.90;;;1.50;;
55732;SDS011;41637;52.364;9.910;2023-05-02T15:23:38;2.70;;;1.30;;
55732;SDS011;41637;52.364;9.910;2023-05-02T15:26:04;3.40;;;1.10;;
55732;SDS011;41637;52.364;9.910;2023-05-02T15:28:31;3.10;;;1.20;;
55732;SDS011;41637;52.364;9.910;2023-05-02T15:30:58;3.70;;;1.30;;
55732;SDS011;41637;52.364;9.910;2023-05-02T15:33:25;2.90;;;1.20;;